sensor_id;sensor_type;location;lat;lon;timestamp;temperature;humidity
6018;DHT22;3037;51.068;13.780;2024-03-08T00:00:05;2.90;1.00
6018;DHT22;3037;51.068;13.780;2024-03-08T00:02:36;2.80;1.00
6018;DHT22;3037;51.068;13.780;2024-03-08T00:05:03;2.60;1.00
6018;DHT22;3037;51.068;13.780;2024-03-08T00:07:28;2.50;1.00
6018;DHT22;3037;51.068;13.780;2024-03-08T00:09:54;2.50;1.00
6018;DHT22;3037;51.068;13.780;2024-03-08T00:12:19;2.40;1.00
6018;DHT22;3037;51.068;13.780;2024-03-08T00:14:45;2.40;1.00
6018;DHT22;3037;51.068;13.780;2024-03-08T00:17:11;2.30;1.00
6018;DHT22;3037;51.068;13.780;2024-03-08T00:19:36;2.30;1.00
6018;DHT22;3037;51.068;13.780;2024-03-08T00:22:02;2.30;1.00
6018;DHT22;3037;51.068;13.780;2024-03-08T00:24:27;2.40;1.00
6018;DHT22;3037;51.068;13.780;2024-03-08T00:26:54;2.40;1.00
6018;DHT22;3037;51.068;13.780;2024-03-08T00:29:20;2.50;1.00
6018;DHT22;3037;51.068;13.780;2024-03-08T00:31:45;2.40;1.00
6018;DHT22;3037;51.068;13.780;2024-03-08T00:34:11;2.20;1.00
6018;DHT22;3037;51.068;13.780;2024-03-08T00:36:37;2.10;1.00
6018;DHT22;3037;51.068;13.780;2024-03-08T00:39:03;2.00;1.00
6018;DHT22;3037;51.068;13.780;2024-03-08T00:41:32;2.20;1.00
6018;DHT22;3037;51.068;13.780;2024-03-08T00:43:57;2.10;1.00
6018;DHT22;3037;51.068;13.780;2024-03-08T00:46:23;2.20;1.00
6018;DHT22;3037;51.068;13.780;2024-03-08T00:48:49;2.30;1.00
6018;DHT22;3037;51.068;13.780;2024-03-08T00:51:14;2.20;1.00
6018;DHT22;3037;51.068;13.780;2024-03-08T00:53:41;2.20;1.00
6018;DHT22;3037;51.068;13.780;2024-03-08T00:56:08;2.20;1.00
6018;DHT22;3037;51.068;13.780;2024-03-08T00:58:36;1.90;1.00
6018;DHT22;3037;51.068;13.780;2024-03-08T01:01:02;1.80;1.00
6018;DHT22;3037;51.068;13.780;2024-03-08T01:03:28;1.50;1.00
6018;DHT22;3037;51.068;13.780;2024-03-08T01:05:53;1.50;1.00
6018;DHT22;3037;51.068;13.780;2024-03-08T01:08:19;1.60;1.00
6018;DHT22;3037;51.068;13.780;2024-03-08T01:10:45;1.70;1.00
6018;DHT22;3037;51.068;13.780;2024-03-08T01:13:10;1.90;1.00
6018;DHT22;3037;51.068;13.780;2024-03-08T01:15:36;1.90;1.00
6018;DHT22;3037;51.068;13.780;2024-03-08T01:18:01;1.70;1.00
6018;DHT22;3037;51.068;13.780;2024-03-08T01:20:27;1.40;1.00
6018;DHT22;3037;51.068;13.780;2024-03-08T01:22:53;1.40;7.20
6018;DHT22;3037;51.068;13.780;2024-03-08T01:25:18;1.40;11.60
6018;DHT22;3037;51.068;13.780;2024-03-08T01:27:44;1.50;1.00
6018;DHT22;3037;51.068;13.780;2024-03-08T01:30:10;1.40;2.50
6018;DHT22;3037;51.068;13.780;2024-03-08T01:32:36;1.40;13.00
6018;DHT22;3037;51.068;13.780;2024-03-08T01:35:01;1.30;18.70
6018;DHT22;3037;51.068;13.780;2024-03-08T01:37:28;1.30;47.30
6018;DHT22;3037;51.068;13.780;2024-03-08T01:39:54;1.30;47.50
6018;DHT22;3037;51.068;13.780;2024-03-08T01:42:20;1.20;70.80
6018;DHT22;3037;51.068;13.780;2024-03-08T01:44:45;1.20;60.10
6018;DHT22;3037;51.068;13.780;2024-03-08T01:47:11;1.20;99.90
6018;DHT22;3037;51.068;13.780;2024-03-08T01:49:37;1.20;99.90
6018;DHT22;3037;51.068;13.780;2024-03-08T01:52:03;1.00;99.90
6018;DHT22;3037;51.068;13.780;2024-03-08T01:54:29;0.90;99.90
6018;DHT22;3037;51.068;13.780;2024-03-08T01:56:56;0.60;99.90
6018;DHT22;3037;51.068;13.780;2024-03-08T01:59:22;0.70;99.90
6018;DHT22;3037;51.068;13.780;2024-03-08T02:01:48;0.70;99.90
6018;DHT22;3037;51.068;13.780;2024-03-08T02:04:14;0.60;99.90
6018;DHT22;3037;51.068;13.780;2024-03-08T02:06:39;0.60;1.00
6018;DHT22;3037;51.068;13.780;2024-03-08T02:09:08;0.50;1.00
6018;DHT22;3037;51.068;13.780;2024-03-08T02:11:34;0.50;99.90
6018;DHT22;3037;51.068;13.780;2024-03-08T02:14:01;0.50;84.90
6018;DHT22;3037;51.068;13.780;2024-03-08T02:16:26;0.60;99.90
6018;DHT22;3037;51.068;13.780;2024-03-08T02:18:52;0.90;99.90
6018;DHT22;3037;51.068;13.780;2024-03-08T02:21:18;0.90;1.00
6018;DHT22;3037;51.068;13.780;2024-03-08T02:23:44;0.60;99.90
6018;DHT22;3037;51.068;13.780;2024-03-08T02:26:10;0.50;99.90
6018;DHT22;3037;51.068;13.780;2024-03-08T02:28:36;0.40;1.00
6018;DHT22;3037;51.068;13.780;2024-03-08T02:31:01;0.30;1.00
6018;DHT22;3037;51.068;13.780;2024-03-08T02:33:27;0.30;1.00
6018;DHT22;3037;51.068;13.780;2024-03-08T02:35:54;0.40;99.90
6018;DHT22;3037;51.068;13.780;2024-03-08T02:38:21;0.40;8.50
6018;DHT22;3037;51.068;13.780;2024-03-08T02:40:48;0.40;1.00
6018;DHT22;3037;51.068;13.780;2024-03-08T02:43:15;0.50;1.00
6018;DHT22;3037;51.068;13.780;2024-03-08T02:45:41;0.30;1.00
6018;DHT22;3037;51.068;13.780;2024-03-08T02:48:11;0.20;28.50
6018;DHT22;3037;51.068;13.780;2024-03-08T02:50:37;0.20;99.90
6018;DHT22;3037;51.068;13.780;2024-03-08T02:53:22;0.20;21.00
6018;DHT22;3037;51.068;13.780;2024-03-08T02:55:49;0.20;1.00
6018;DHT22;3037;51.068;13.780;2024-03-08T02:58:15;0.30;99.90
6018;DHT22;3037;51.068;13.780;2024-03-08T03:00:40;0.30;1.00
6018;DHT22;3037;51.068;13.780;2024-03-08T03:03:07;0.20;99.90
6018;DHT22;3037;51.068;13.780;2024-03-08T03:05:33;0.20;1.00
6018;DHT22;3037;51.068;13.780;2024-03-08T03:07:59;0.20;1.00
6018;DHT22;3037;51.068;13.780;2024-03-08T03:10:25;0.10;24.30
6018;DHT22;3037;51.068;13.780;2024-03-08T03:12:51;-0.10;1.00
6018;DHT22;3037;51.068;13.780;2024-03-08T03:15:17;0.00;1.00
6018;DHT22;3037;51.068;13.780;2024-03-08T03:17:50;0.10;99.90
6018;DHT22;3037;51.068;13.780;2024-03-08T03:20:19;0.20;1.00
6018;DHT22;3037;51.068;13.780;2024-03-08T03:23:05;0.10;1.00
6018;DHT22;3037;51.068;13.780;2024-03-08T03:25:33;-0.10;1.00
6018;DHT22;3037;51.068;13.780;2024-03-08T03:28:03;-0.10;1.00
6018;DHT22;3037;51.068;13.780;2024-03-08T03:30:29;-0.10;1.00
6018;DHT22;3037;51.068;13.780;2024-03-08T03:32:59;-0.20;1.00
6018;DHT22;3037;51.068;13.780;2024-03-08T03:35:28;-0.20;87.70
6018;DHT22;3037;51.068;13.780;2024-03-08T03:37:57;-0.20;99.90
6018;DHT22;3037;51.068;13.780;2024-03-08T03:40:36;-0.20;99.90
6018;DHT22;3037;51.068;13.780;2024-03-08T03:43:02;-0.20;99.90
6018;DHT22;3037;51.068;13.780;2024-03-08T03:45:28;-0.10;99.90
6018;DHT22;3037;51.068;13.780;2024-03-08T03:47:54;-0.10;99.90
6018;DHT22;3037;51.068;13.780;2024-03-08T03:50:20;-0.10;1.00
6018;DHT22;3037;51.068;13.780;2024-03-08T03:52:46;0.00;1.00
6018;DHT22;3037;51.068;13.780;2024-03-08T03:55:12;-0.10;99.90
6018;DHT22;3037;51.068;13.780;2024-03-08T03:57:38;-0.20;1.00
6018;DHT22;3037;51.068;13.780;2024-03-08T04:00:05;-0.20;1.00
6018;DHT22;3037;51.068;13.780;2024-03-08T04:02:31;-0.40;91.20
6018;DHT22;3037;51.068;13.780;2024-03-08T04:04:57;-0.30;99.90
6018;DHT22;3037;51.068;13.780;2024-03-08T04:07:22;-0.30;8.40
6018;DHT22;3037;51.068;13.780;2024-03-08T04:09:48;-0.30;1.00
6018;DHT22;3037;51.068;13.780;2024-03-08T04:12:13;-0.40;99.90
6018;DHT22;3037;51.068;13.780;2024-03-08T04:14:41;-0.30;99.90
6018;DHT22;3037;51.068;13.780;2024-03-08T04:17:07;-0.30;99.90
6018;DHT22;3037;51.068;13.780;2024-03-08T04:19:34;-0.40;99.90
6018;DHT22;3037;51.068;13.780;2024-03-08T04:22:00;-0.30;99.90
6018;DHT22;3037;51.068;13.780;2024-03-08T04:24:26;-0.40;99.90
6018;DHT22;3037;51.068;13.780;2024-03-08T04:26:52;-0.50;99.90
6018;DHT22;3037;51.068;13.780;2024-03-08T04:29:18;-0.40;99.90
6018;DHT22;3037;51.068;13.780;2024-03-08T04:31:44;-0.50;99.90
6018;DHT22;3037;51.068;13.780;2024-03-08T04:34:10;-0.50;99.90
6018;DHT22;3037;51.068;13.780;2024-03-08T04:36:35;-0.50;99.90
6018;DHT22;3037;51.068;13.780;2024-03-08T04:39:01;-0.50;99.90
6018;DHT22;3037;51.068;13.780;2024-03-08T04:41:26;-0.50;99.90
6018;DHT22;3037;51.068;13.780;2024-03-08T04:43:52;-0.30;99.90
6018;DHT22;3037;51.068;13.780;2024-03-08T04:46:17;-0.40;99.90
6018;DHT22;3037;51.068;13.780;2024-03-08T04:48:43;-0.40;99.90
6018;DHT22;3037;51.068;13.780;2024-03-08T04:51:09;-0.40;99.90
6018;DHT22;3037;51.068;13.780;2024-03-08T04:53:35;-0.30;99.90
6018;DHT22;3037;51.068;13.780;2024-03-08T04:56:00;-0.40;99.90
6018;DHT22;3037;51.068;13.780;2024-03-08T04:58:32;-0.40;99.90
6018;DHT22;3037;51.068;13.780;2024-03-08T05:00:57;-0.40;99.90
6018;DHT22;3037;51.068;13.780;2024-03-08T05:03:23;-0.50;99.90
6018;DHT22;3037;51.068;13.780;2024-03-08T05:05:52;-0.60;99.90
6018;DHT22;3037;51.068;13.780;2024-03-08T05:08:18;-0.50;99.90
6018;DHT22;3037;51.068;13.780;2024-03-08T05:10:44;-0.40;99.90
6018;DHT22;3037;51.068;13.780;2024-03-08T05:13:09;-0.50;99.90
6018;DHT22;3037;51.068;13.780;2024-03-08T05:15:35;-0.50;99.90
6018;DHT22;3037;51.068;13.780;2024-03-08T05:18:01;-0.60;99.90
6018;DHT22;3037;51.068;13.780;2024-03-08T05:20:27;-0.60;99.90
6018;DHT22;3037;51.068;13.780;2024-03-08T05:22:52;-0.50;99.90
6018;DHT22;3037;51.068;13.780;2024-03-08T05:25:18;-0.60;99.90
6018;DHT22;3037;51.068;13.780;2024-03-08T05:27:43;-0.60;99.90
6018;DHT22;3037;51.068;13.780;2024-03-08T05:30:09;-0.50;99.90
6018;DHT22;3037;51.068;13.780;2024-03-08T05:32:41;-0.40;99.90
6018;DHT22;3037;51.068;13.780;2024-03-08T05:35:10;-0.50;99.90
6018;DHT22;3037;51.068;13.780;2024-03-08T05:37:36;-0.60;99.90
6018;DHT22;3037;51.068;13.780;2024-03-08T05:40:02;-0.60;99.90
6018;DHT22;3037;51.068;13.780;2024-03-08T05:42:28;-0.50;99.90
6018;DHT22;3037;51.068;13.780;2024-03-08T05:44:54;-0.50;99.90
6018;DHT22;3037;51.068;13.780;2024-03-08T05:47:22;-0.50;99.90
6018;DHT22;3037;51.068;13.780;2024-03-08T05:49:47;-0.40;99.90
6018;DHT22;3037;51.068;13.780;2024-03-08T05:52:13;-0.50;99.90
6018;DHT22;3037;51.068;13.780;2024-03-08T05:54:39;-0.50;99.90
6018;DHT22;3037;51.068;13.780;2024-03-08T05:57:06;-0.40;99.90
6018;DHT22;3037;51.068;13.780;2024-03-08T05:59:31;-0.50;99.90
6018;DHT22;3037;51.068;13.780;2024-03-08T06:01:57;-0.40;99.90
6018;DHT22;3037;51.068;13.780;2024-03-08T06:04:23;-0.30;99.90
6018;DHT22;3037;51.068;13.780;2024-03-08T06:06:48;-0.10;99.90
6018;DHT22;3037;51.068;13.780;2024-03-08T06:09:14;0.10;99.90
6018;DHT22;3037;51.068;13.780;2024-03-08T06:11:43;0.10;99.90
6018;DHT22;3037;51.068;13.780;2024-03-08T06:14:08;0.20;99.90
6018;DHT22;3037;51.068;13.780;2024-03-08T06:16:34;0.30;99.90
6018;DHT22;3037;51.068;13.780;2024-03-08T06:19:01;0.40;99.90
6018;DHT22;3037;51.068;13.780;2024-03-08T06:21:30;0.40;99.90
6018;DHT22;3037;51.068;13.780;2024-03-08T06:23:55;0.50;99.90
6018;DHT22;3037;51.068;13.780;2024-03-08T06:26:23;0.70;99.90
6018;DHT22;3037;51.068;13.780;2024-03-08T06:28:49;0.70;99.90
6018;DHT22;3037;51.068;13.780;2024-03-08T06:31:16;1.00;99.90
6018;DHT22;3037;51.068;13.780;2024-03-08T06:33:41;0.80;99.90
6018;DHT22;3037;51.068;13.780;2024-03-08T06:36:08;0.80;99.90
6018;DHT22;3037;51.068;13.780;2024-03-08T06:38:33;0.90;99.90
6018;DHT22;3037;51.068;13.780;2024-03-08T06:40:59;1.00;99.90
6018;DHT22;3037;51.068;13.780;2024-03-08T06:43:28;1.00;99.90
6018;DHT22;3037;51.068;13.780;2024-03-08T06:45:59;1.00;99.90
6018;DHT22;3037;51.068;13.780;2024-03-08T06:48:24;1.10;99.90
6018;DHT22;3037;51.068;13.780;2024-03-08T06:50:50;1.30;99.90
6018;DHT22;3037;51.068;13.780;2024-03-08T06:53:16;1.60;99.90
6018;DHT22;3037;51.068;13.780;2024-03-08T06:55:44;3.10;95.40
6018;DHT22;3037;51.068;13.780;2024-03-08T06:58:10;5.40;39.10
6018;DHT22;3037;51.068;13.780;2024-03-08T07:00:36;6.90;2.00
6018;DHT22;3037;51.068;13.780;2024-03-08T07:03:02;7.10;1.00
6018;DHT22;3037;51.068;13.780;2024-03-08T07:05:28;8.20;1.00
6018;DHT22;3037;51.068;13.780;2024-03-08T07:07:54;9.20;1.00
6018;DHT22;3037;51.068;13.780;2024-03-08T07:10:21;9.70;1.00
6018;DHT22;3037;51.068;13.780;2024-03-08T07:12:49;10.60;1.00
6018;DHT22;3037;51.068;13.780;2024-03-08T07:15:14;9.70;1.00
6018;DHT22;3037;51.068;13.780;2024-03-08T07:17:40;11.10;1.00
6018;DHT22;3037;51.068;13.780;2024-03-08T07:20:06;12.10;1.00
6018;DHT22;3037;51.068;13.780;2024-03-08T07:22:37;12.20;1.00
6018;DHT22;3037;51.068;13.780;2024-03-08T07:25:05;11.60;1.00
6018;DHT22;3037;51.068;13.780;2024-03-08T07:27:54;10.70;1.00
6018;DHT22;3037;51.068;13.780;2024-03-08T07:30:21;11.30;1.00
6018;DHT22;3037;51.068;13.780;2024-03-08T07:33:06;11.10;1.00
6018;DHT22;3037;51.068;13.780;2024-03-08T07:35:33;11.60;1.00
6018;DHT22;3037;51.068;13.780;2024-03-08T07:37:58;13.90;1.00
6018;DHT22;3037;51.068;13.780;2024-03-08T07:40:25;14.60;1.00
6018;DHT22;3037;51.068;13.780;2024-03-08T07:42:52;15.00;1.00
6018;DHT22;3037;51.068;13.780;2024-03-08T07:45:17;14.90;1.00
6018;DHT22;3037;51.068;13.780;2024-03-08T07:47:43;15.10;1.00
6018;DHT22;3037;51.068;13.780;2024-03-08T07:50:09;16.00;1.00
6018;DHT22;3037;51.068;13.780;2024-03-08T07:52:35;16.90;1.00
6018;DHT22;3037;51.068;13.780;2024-03-08T07:55:04;16.80;1.00
6018;DHT22;3037;51.068;13.780;2024-03-08T07:57:31;17.00;1.00
6018;DHT22;3037;51.068;13.780;2024-03-08T07:59:57;16.10;1.00
6018;DHT22;3037;51.068;13.780;2024-03-08T08:02:22;15.60;1.00
6018;DHT22;3037;51.068;13.780;2024-03-08T08:04:48;15.00;1.00
6018;DHT22;3037;51.068;13.780;2024-03-08T08:07:13;15.30;1.00
6018;DHT22;3037;51.068;13.780;2024-03-08T08:09:40;17.80;1.00
6018;DHT22;3037;51.068;13.780;2024-03-08T08:12:08;18.80;1.00
6018;DHT22;3037;51.068;13.780;2024-03-08T08:14:39;19.20;1.00
6018;DHT22;3037;51.068;13.780;2024-03-08T08:17:06;19.00;1.00
6018;DHT22;3037;51.068;13.780;2024-03-08T08:19:34;18.90;1.00
6018;DHT22;3037;51.068;13.780;2024-03-08T08:22:01;19.00;1.00
6018;DHT22;3037;51.068;13.780;2024-03-08T08:24:27;19.10;1.00
6018;DHT22;3037;51.068;13.780;2024-03-08T08:26:53;17.50;1.00
6018;DHT22;3037;51.068;13.780;2024-03-08T08:29:18;17.50;1.00
6018;DHT22;3037;51.068;13.780;2024-03-08T08:31:45;17.30;1.00
6018;DHT22;3037;51.068;13.780;2024-03-08T08:34:11;18.40;1.00
6018;DHT22;3037;51.068;13.780;2024-03-08T08:36:40;18.10;1.00
6018;DHT22;3037;51.068;13.780;2024-03-08T08:39:05;18.20;1.00
6018;DHT22;3037;51.068;13.780;2024-03-08T08:41:37;19.90;1.00
6018;DHT22;3037;51.068;13.780;2024-03-08T08:44:03;18.30;1.00
6018;DHT22;3037;51.068;13.780;2024-03-08T08:46:28;19.20;1.00
6018;DHT22;3037;51.068;13.780;2024-03-08T08:48:54;18.30;1.00
6018;DHT22;3037;51.068;13.780;2024-03-08T08:51:19;19.90;1.00
6018;DHT22;3037;51.068;13.780;2024-03-08T08:53:45;20.30;1.00
6018;DHT22;3037;51.068;13.780;2024-03-08T08:56:15;20.00;1.00
6018;DHT22;3037;51.068;13.780;2024-03-08T08:58:41;21.40;1.00
6018;DHT22;3037;51.068;13.780;2024-03-08T09:01:08;21.20;1.00
6018;DHT22;3037;51.068;13.780;2024-03-08T09:03:35;20.70;1.00
6018;DHT22;3037;51.068;13.780;2024-03-08T09:06:05;20.40;1.00
6018;DHT22;3037;51.068;13.780;2024-03-08T09:08:30;20.10;1.00
6018;DHT22;3037;51.068;13.780;2024-03-08T09:10:56;19.80;1.00
6018;DHT22;3037;51.068;13.780;2024-03-08T09:13:21;21.70;1.00
6018;DHT22;3037;51.068;13.780;2024-03-08T09:15:48;21.80;1.00
6018;DHT22;3037;51.068;13.780;2024-03-08T09:18:13;21.30;1.00
6018;DHT22;3037;51.068;13.780;2024-03-08T09:20:39;22.50;1.00
6018;DHT22;3037;51.068;13.780;2024-03-08T09:23:06;21.90;1.00
6018;DHT22;3037;51.068;13.780;2024-03-08T09:25:33;22.70;1.00
6018;DHT22;3037;51.068;13.780;2024-03-08T09:30:24;22.80;1.00
6018;DHT22;3037;51.068;13.780;2024-03-08T09:32:50;22.70;1.00
6018;DHT22;3037;51.068;13.780;2024-03-08T09:35:16;21.50;1.00
6018;DHT22;3037;51.068;13.780;2024-03-08T09:37:42;21.80;1.00
6018;DHT22;3037;51.068;13.780;2024-03-08T09:40:07;23.50;1.00
6018;DHT22;3037;51.068;13.780;2024-03-08T09:42:41;23.40;1.00
6018;DHT22;3037;51.068;13.780;2024-03-08T09:45:09;21.80;1.00
6018;DHT22;3037;51.068;13.780;2024-03-08T09:47:41;20.20;1.00
6018;DHT22;3037;51.068;13.780;2024-03-08T09:50:08;21.20;1.00
6018;DHT22;3037;51.068;13.780;2024-03-08T09:52:38;20.30;1.00
6018;DHT22;3037;51.068;13.780;2024-03-08T09:55:05;20.80;1.00
6018;DHT22;3037;51.068;13.780;2024-03-08T09:57:32;20.40;1.00
6018;DHT22;3037;51.068;13.780;2024-03-08T09:59:59;19.30;1.00
6018;DHT22;3037;51.068;13.780;2024-03-08T10:02:24;20.00;1.00
6018;DHT22;3037;51.068;13.780;2024-03-08T10:04:51;19.10;1.00
6018;DHT22;3037;51.068;13.780;2024-03-08T10:07:18;19.90;1.00
6018;DHT22;3037;51.068;13.780;2024-03-08T10:09:44;19.50;1.00
6018;DHT22;3037;51.068;13.780;2024-03-08T10:12:18;19.40;1.00
6018;DHT22;3037;51.068;13.780;2024-03-08T10:14:45;17.90;1.00
6018;DHT22;3037;51.068;13.780;2024-03-08T10:17:12;18.30;1.00
6018;DHT22;3037;51.068;13.780;2024-03-08T10:19:37;18.30;1.00
6018;DHT22;3037;51.068;13.780;2024-03-08T10:22:04;18.10;1.00
6018;DHT22;3037;51.068;13.780;2024-03-08T10:24:30;19.60;1.00
6018;DHT22;3037;51.068;13.780;2024-03-08T10:26:59;18.90;1.00
6018;DHT22;3037;51.068;13.780;2024-03-08T10:29:25;18.80;1.00
6018;DHT22;3037;51.068;13.780;2024-03-08T10:31:51;20.20;1.00
6018;DHT22;3037;51.068;13.780;2024-03-08T10:34:17;21.90;1.00
6018;DHT22;3037;51.068;13.780;2024-03-08T10:36:42;20.50;1.00
6018;DHT22;3037;51.068;13.780;2024-03-08T10:39:21;19.30;1.00
6018;DHT22;3037;51.068;13.780;2024-03-08T10:41:53;19.80;1.00
6018;DHT22;3037;51.068;13.780;2024-03-08T10:47:22;20.30;1.00
6018;DHT22;3037;51.068;13.780;2024-03-08T10:49:54;20.90;1.00
6018;DHT22;3037;51.068;13.780;2024-03-08T10:52:21;19.00;1.00
6018;DHT22;3037;51.068;13.780;2024-03-08T10:54:48;16.90;1.00
6018;DHT22;3037;51.068;13.780;2024-03-08T10:57:17;18.40;1.00
6018;DHT22;3037;51.068;13.780;2024-03-08T10:59:43;19.90;1.00
6018;DHT22;3037;51.068;13.780;2024-03-08T11:02:12;18.20;1.00
6018;DHT22;3037;51.068;13.780;2024-03-08T11:04:37;18.50;1.00
6018;DHT22;3037;51.068;13.780;2024-03-08T11:07:03;18.40;1.00
6018;DHT22;3037;51.068;13.780;2024-03-08T11:09:36;17.10;1.00
6018;DHT22;3037;51.068;13.780;2024-03-08T11:14:51;15.90;1.00
6018;DHT22;3037;51.068;13.780;2024-03-08T11:17:21;15.40;1.00
6018;DHT22;3037;51.068;13.780;2024-03-08T11:19:50;16.70;1.00
6018;DHT22;3037;51.068;13.780;2024-03-08T11:22:47;15.30;1.00
6018;DHT22;3037;51.068;13.780;2024-03-08T11:25:34;14.80;1.00
6018;DHT22;3037;51.068;13.780;2024-03-08T11:30:34;13.90;1.00
6018;DHT22;3037;51.068;13.780;2024-03-08T11:33:01;14.10;1.00
6018;DHT22;3037;51.068;13.780;2024-03-08T11:35:28;14.00;1.00
6018;DHT22;3037;51.068;13.780;2024-03-08T11:37:54;12.80;1.00
6018;DHT22;3037;51.068;13.780;2024-03-08T11:40:20;13.70;1.00
6018;DHT22;3037;51.068;13.780;2024-03-08T11:42:47;13.70;1.00
6018;DHT22;3037;51.068;13.780;2024-03-08T11:45:13;13.90;1.00
6018;DHT22;3037;51.068;13.780;2024-03-08T11:47:42;13.70;1.00
6018;DHT22;3037;51.068;13.780;2024-03-08T11:50:09;14.00;1.00
6018;DHT22;3037;51.068;13.780;2024-03-08T11:52:37;13.50;1.00
6018;DHT22;3037;51.068;13.780;2024-03-08T11:55:03;13.00;1.00
6018;DHT22;3037;51.068;13.780;2024-03-08T11:57:30;12.40;1.00
6018;DHT22;3037;51.068;13.780;2024-03-08T11:59:57;12.20;1.00
6018;DHT22;3037;51.068;13.780;2024-03-08T12:02:24;12.60;1.00
6018;DHT22;3037;51.068;13.780;2024-03-08T12:04:57;12.60;1.00
6018;DHT22;3037;51.068;13.780;2024-03-08T12:07:23;12.40;1.00
6018;DHT22;3037;51.068;13.780;2024-03-08T12:10:17;12.30;1.00
6018;DHT22;3037;51.068;13.780;2024-03-08T12:13:02;12.20;1.00
6018;DHT22;3037;51.068;13.780;2024-03-08T12:15:36;12.50;1.00
6018;DHT22;3037;51.068;13.780;2024-03-08T12:18:02;12.00;1.00
6018;DHT22;3037;51.068;13.780;2024-03-08T12:20:30;12.10;1.00
6018;DHT22;3037;51.068;13.780;2024-03-08T12:22:56;12.30;1.00
6018;DHT22;3037;51.068;13.780;2024-03-08T12:25:25;12.30;1.00
6018;DHT22;3037;51.068;13.780;2024-03-08T12:27:51;12.10;1.00
6018;DHT22;3037;51.068;13.780;2024-03-08T12:30:23;12.20;1.00
6018;DHT22;3037;51.068;13.780;2024-03-08T12:32:57;12.10;1.00
6018;DHT22;3037;51.068;13.780;2024-03-08T12:35:24;12.10;1.00
6018;DHT22;3037;51.068;13.780;2024-03-08T12:37:52;12.60;1.00
6018;DHT22;3037;51.068;13.780;2024-03-08T12:40:21;12.00;1.00
6018;DHT22;3037;51.068;13.780;2024-03-08T12:42:50;11.70;1.00
6018;DHT22;3037;51.068;13.780;2024-03-08T12:45:16;11.80;1.00
6018;DHT22;3037;51.068;13.780;2024-03-08T12:47:42;12.00;1.00
6018;DHT22;3037;51.068;13.780;2024-03-08T12:50:09;11.80;1.00
6018;DHT22;3037;51.068;13.780;2024-03-08T12:52:35;11.60;1.00
6018;DHT22;3037;51.068;13.780;2024-03-08T12:55:00;11.40;1.00
6018;DHT22;3037;51.068;13.780;2024-03-08T12:57:29;11.80;1.00
6018;DHT22;3037;51.068;13.780;2024-03-08T12:59:54;12.00;1.00
6018;DHT22;3037;51.068;13.780;2024-03-08T13:02:20;12.00;1.00
6018;DHT22;3037;51.068;13.780;2024-03-08T13:04:46;12.00;1.00
6018;DHT22;3037;51.068;13.780;2024-03-08T13:07:21;12.30;1.00
6018;DHT22;3037;51.068;13.780;2024-03-08T13:09:48;12.10;1.00
6018;DHT22;3037;51.068;13.780;2024-03-08T13:12:14;12.10;1.00
6018;DHT22;3037;51.068;13.780;2024-03-08T13:14:41;12.10;1.00
6018;DHT22;3037;51.068;13.780;2024-03-08T13:17:06;12.30;1.00
6018;DHT22;3037;51.068;13.780;2024-03-08T13:19:36;11.70;1.00
6018;DHT22;3037;51.068;13.780;2024-03-08T13:22:03;11.80;1.00
6018;DHT22;3037;51.068;13.780;2024-03-08T13:24:32;12.00;1.00
6018;DHT22;3037;51.068;13.780;2024-03-08T13:26:59;11.80;1.00
6018;DHT22;3037;51.068;13.780;2024-03-08T13:29:25;11.70;1.00
6018;DHT22;3037;51.068;13.780;2024-03-08T13:31:50;11.90;1.00
6018;DHT22;3037;51.068;13.780;2024-03-08T13:34:20;11.60;1.00
6018;DHT22;3037;51.068;13.780;2024-03-08T13:36:55;11.50;1.00
6018;DHT22;3037;51.068;13.780;2024-03-08T13:39:25;11.50;1.00
6018;DHT22;3037;51.068;13.780;2024-03-08T13:41:51;11.60;1.00
6018;DHT22;3037;51.068;13.780;2024-03-08T13:44:16;11.60;1.00
6018;DHT22;3037;51.068;13.780;2024-03-08T13:46:42;11.50;1.00
6018;DHT22;3037;51.068;13.780;2024-03-08T13:49:08;11.50;1.00
6018;DHT22;3037;51.068;13.780;2024-03-08T13:51:35;11.40;1.00
6018;DHT22;3037;51.068;13.780;2024-03-08T13:54:01;11.90;1.00
6018;DHT22;3037;51.068;13.780;2024-03-08T13:56:27;11.90;1.00
6018;DHT22;3037;51.068;13.780;2024-03-08T13:58:55;11.60;1.00
6018;DHT22;3037;51.068;13.780;2024-03-08T14:01:22;11.60;1.00
6018;DHT22;3037;51.068;13.780;2024-03-08T14:03:48;11.70;1.00
6018;DHT22;3037;51.068;13.780;2024-03-08T14:06:13;11.70;1.00
6018;DHT22;3037;51.068;13.780;2024-03-08T14:08:39;11.70;1.00
6018;DHT22;3037;51.068;13.780;2024-03-08T14:11:05;11.90;1.00
6018;DHT22;3037;51.068;13.780;2024-03-08T14:13:42;12.00;1.00
6018;DHT22;3037;51.068;13.780;2024-03-08T14:16:09;12.10;1.00
6018;DHT22;3037;51.068;13.780;2024-03-08T14:18:35;11.90;1.00
6018;DHT22;3037;51.068;13.780;2024-03-08T14:21:02;11.90;1.00
6018;DHT22;3037;51.068;13.780;2024-03-08T14:23:29;11.90;1.00
6018;DHT22;3037;51.068;13.780;2024-03-08T14:25:55;12.00;1.00
6018;DHT22;3037;51.068;13.780;2024-03-08T14:28:20;12.00;1.00
6018;DHT22;3037;51.068;13.780;2024-03-08T14:30:48;11.90;1.00
6018;DHT22;3037;51.068;13.780;2024-03-08T14:33:14;11.70;1.00
6018;DHT22;3037;51.068;13.780;2024-03-08T14:35:40;11.60;1.00
6018;DHT22;3037;51.068;13.780;2024-03-08T14:38:07;11.60;1.00
6018;DHT22;3037;51.068;13.780;2024-03-08T14:40:37;11.60;1.00
6018;DHT22;3037;51.068;13.780;2024-03-08T14:43:03;11.50;1.00
6018;DHT22;3037;51.068;13.780;2024-03-08T14:45:29;11.60;1.00
6018;DHT22;3037;51.068;13.780;2024-03-08T14:47:56;11.60;1.00
6018;DHT22;3037;51.068;13.780;2024-03-08T14:50:23;11.40;1.00
6018;DHT22;3037;51.068;13.780;2024-03-08T14:52:49;11.40;1.00
6018;DHT22;3037;51.068;13.780;2024-03-08T14:55:16;11.30;1.00
6018;DHT22;3037;51.068;13.780;2024-03-08T14:57:42;11.50;1.00
6018;DHT22;3037;51.068;13.780;2024-03-08T15:00:11;11.40;1.00
6018;DHT22;3037;51.068;13.780;2024-03-08T15:02:55;11.60;1.00
6018;DHT22;3037;51.068;13.780;2024-03-08T15:05:21;11.30;1.00
6018;DHT22;3037;51.068;13.780;2024-03-08T15:07:52;11.40;1.00
6018;DHT22;3037;51.068;13.780;2024-03-08T15:10:17;11.40;1.00
6018;DHT22;3037;51.068;13.780;2024-03-08T15:12:46;11.20;1.00
6018;DHT22;3037;51.068;13.780;2024-03-08T15:15:14;11.20;1.00
6018;DHT22;3037;51.068;13.780;2024-03-08T15:17:43;11.10;1.00
6018;DHT22;3037;51.068;13.780;2024-03-08T15:20:09;11.10;1.00
6018;DHT22;3037;51.068;13.780;2024-03-08T15:25:14;11.20;1.00
6018;DHT22;3037;51.068;13.780;2024-03-08T15:27:46;11.10;1.00
6018;DHT22;3037;51.068;13.780;2024-03-08T15:30:12;11.30;1.00
6018;DHT22;3037;51.068;13.780;2024-03-08T15:32:45;11.10;1.00
6018;DHT22;3037;51.068;13.780;2024-03-08T15:35:13;11.00;1.00
6018;DHT22;3037;51.068;13.780;2024-03-08T15:37:42;10.90;1.00
6018;DHT22;3037;51.068;13.780;2024-03-08T15:40:10;10.90;1.00
6018;DHT22;3037;51.068;13.780;2024-03-08T15:42:47;10.80;1.00
6018;DHT22;3037;51.068;13.780;2024-03-08T15:45:12;10.70;1.00
6018;DHT22;3037;51.068;13.780;2024-03-08T15:47:38;10.70;1.00
6018;DHT22;3037;51.068;13.780;2024-03-08T15:50:04;10.60;1.00
6018;DHT22;3037;51.068;13.780;2024-03-08T15:52:29;10.70;1.00
6018;DHT22;3037;51.068;13.780;2024-03-08T15:54:55;10.60;1.00
6018;DHT22;3037;51.068;13.780;2024-03-08T15:57:20;10.60;1.00
6018;DHT22;3037;51.068;13.780;2024-03-08T15:59:46;10.50;1.00
6018;DHT22;3037;51.068;13.780;2024-03-08T16:02:12;10.40;1.00
6018;DHT22;3037;51.068;13.780;2024-03-08T16:04:38;10.30;1.00
6018;DHT22;3037;51.068;13.780;2024-03-08T16:07:03;10.20;1.00
6018;DHT22;3037;51.068;13.780;2024-03-08T16:09:31;10.20;1.00
6018;DHT22;3037;51.068;13.780;2024-03-08T16:11:59;10.10;1.00
6018;DHT22;3037;51.068;13.780;2024-03-08T16:14:25;10.10;1.00